createdAt,value
2023-05-15T00:01:28.762Z,98695.03
2023-05-15T00:03:56.175Z,98698.84
2023-05-15T00:06:23.397Z,98702.69
2023-05-15T00:08:50.782Z,98697.78
2023-05-15T00:11:17.636Z,98699.41
2023-05-15T00:13:44.926Z,98696.34
2023-05-15T00:16:12.036Z,98686.66
2023-05-15T00:18:39.685Z,98681.00
2023-05-15T00:21:06.694Z,98675.97
2023-05-15T00:23:33.860Z,98677.31
2023-05-15T00:26:00.810Z,98665.78
2023-05-15T00:28:28.030Z,98660.06
2023-05-15T00:30:56.746Z,98662.97
2023-05-15T00:33:23.998Z,98660.31
2023-05-15T00:35:51.106Z,98652.22
2023-05-15T00:38:18.291Z,98653.81
2023-05-15T00:40:46.559Z,98651.97
2023-05-15T00:43:15.249Z,98642.34
2023-05-15T00:45:43.866Z,98642.72
2023-05-15T00:48:12.205Z,98642.22
2023-05-15T00:50:41.423Z,98644.34
2023-05-15T00:53:09.744Z,98634.94
2023-05-15T00:55:39.120Z,98631.47
2023-05-15T00:58:07.838Z,98634.44
2023-05-15T01:00:35.262Z,98630.41
2023-05-15T01:03:06.098Z,98621.25
2023-05-15T01:05:34.008Z,98617.50
2023-05-15T01:08:33.727Z,98625.88
2023-05-15T01:11:04.209Z,98625.56
2023-05-15T01:13:31.411Z,98637.09
2023-05-15T01:15:59.409Z,98638.47
2023-05-15T01:18:32.428Z,98633.16
2023-05-15T01:21:05.837Z,98620.78
2023-05-15T01:23:51.826Z,98623.22
2023-05-15T01:27:03.252Z,98625.63
2023-05-15T01:30:26.866Z,98624.28
2023-05-15T01:33:05.805Z,98625.06
2023-05-15T01:35:40.799Z,98615.41
2023-05-15T01:38:34.704Z,98611.63
2023-05-15T01:41:31.606Z,98607.28
2023-05-15T01:44:34.314Z,98610.53
2023-05-15T01:47:14.718Z,98600.91
2023-05-15T01:49:45.549Z,98606.81
2023-05-15T01:52:45.501Z,98595.00
2023-05-15T01:55:15.055Z,98585.31
2023-05-15T01:57:43.636Z,98592.25
2023-05-15T02:00:12.623Z,98588.19
2023-05-15T02:02:44.829Z,98579.63
2023-05-15T02:05:14.521Z,98577.72
2023-05-15T02:07:44.356Z,98578.56
2023-05-15T02:10:13.760Z,98570.25
2023-05-15T02:12:42.529Z,98566.50
2023-05-15T02:15:11.841Z,98569.22
2023-05-15T02:17:39.463Z,98569.75
2023-05-15T02:20:08.174Z,98559.03
2023-05-15T02:22:38.806Z,98555.53
2023-05-15T02:25:06.164Z,98546.13
2023-05-15T02:28:00.025Z,98545.59
2023-05-15T02:30:57.870Z,98548.78
2023-05-15T02:34:09.075Z,98540.19
2023-05-15T02:36:44.551Z,98531.59
2023-05-15T02:39:15.645Z,98540.41
2023-05-15T02:41:44.944Z,98537.22
2023-05-15T02:44:14.981Z,98534.53
2023-05-15T02:46:42.352Z,98535.09
2023-05-15T02:49:12.020Z,98528.38
2023-05-15T02:51:40.494Z,98532.66
2023-05-15T02:54:09.559Z,98527.84
2023-05-15T02:56:36.856Z,98541.25
2023-05-15T02:59:05.134Z,98538.03
2023-05-15T03:01:32.255Z,98531.31
2023-05-15T03:03:59.529Z,98521.38
2023-05-15T03:06:26.523Z,98523.25
2023-05-15T03:08:53.918Z,98523.53
2023-05-15T03:11:21.309Z,98518.16
2023-05-15T03:13:48.591Z,98524.06
2023-05-15T03:16:15.893Z,98525.69
2023-05-15T03:18:43.119Z,98521.88
2023-05-15T03:21:10.485Z,98527.25
2023-05-15T03:23:38.190Z,98528.88
2023-05-15T03:26:05.288Z,98528.34
2023-05-15T03:28:32.531Z,98531.56
2023-05-15T03:30:59.600Z,98522.72
2023-05-15T03:33:26.848Z,98525.69
2023-05-15T03:35:53.859Z,98520.84
2023-05-15T03:38:21.719Z,98522.72
2023-05-15T03:40:50.881Z,98516.53
2023-05-15T03:43:18.392Z,98511.69
2023-05-15T03:45:45.673Z,98518.66
2023-05-15T03:48:12.982Z,98506.88
2023-05-15T03:50:40.457Z,98498.53
2023-05-15T03:53:07.780Z,98497.47
2023-05-15T03:55:35.836Z,98502.56
2023-05-15T03:58:03.252Z,98498.25
2023-05-15T04:00:30.262Z,98497.19
2023-05-15T04:02:57.536Z,98495.56
2023-05-15T04:05:24.732Z,98485.94
2023-05-15T04:07:52.107Z,98484.84
2023-05-15T04:10:19.563Z,98482.72
2023-05-15T04:12:47.714Z,98480.03
2023-05-15T04:15:18.383Z,98475.19
2023-05-15T04:17:47.605Z,98485.94
2023-05-15T04:20:18.375Z,98473.06
2023-05-15T04:22:46.408Z,98470.66
2023-05-15T04:25:14.957Z,98457.22
2023-05-15T04:27:44.039Z,98464.47
2023-05-15T04:30:12.617Z,98450.25
2023-05-15T04:32:40.897Z,98435.72
2023-05-15T04:35:10.646Z,98429.00
2023-05-15T04:37:39.735Z,98422.31
2023-05-15T04:40:08.335Z,98424.75
2023-05-15T04:42:38.551Z,98435.50
2023-05-15T04:45:07.426Z,98440.59
2023-05-15T04:47:35.729Z,98429.84
2023-05-15T04:50:03.125Z,98430.13
2023-05-15T04:52:30.383Z,98432.25
2023-05-15T04:54:57.419Z,98444.63
2023-05-15T04:57:25.657Z,98446.78
2023-05-15T04:59:52.782Z,98439.53
2023-05-15T05:02:24.534Z,98455.38
2023-05-15T05:04:51.875Z,98443.56
2023-05-15T05:07:19.110Z,98444.63
2023-05-15T05:09:46.268Z,98447.03
2023-05-15T05:12:14.119Z,98448.41
2023-05-15T05:14:42.141Z,98452.19
2023-05-15T05:17:09.584Z,98448.94
2023-05-15T05:19:36.633Z,98440.34
2023-05-15T05:22:07.528Z,98441.97
2023-05-15T05:24:38.013Z,98448.16
2023-05-15T05:27:06.072Z,98441.97
2023-05-15T05:29:33.560Z,98444.09
2023-05-15T05:32:01.757Z,98460.50
2023-05-15T05:34:29.066Z,98458.63
2023-05-15T05:36:56.488Z,98453.78
2023-05-15T05:39:23.652Z,98455.41
2023-05-15T05:41:50.930Z,98455.94
2023-05-15T05:44:18.293Z,98453.50
2023-05-15T05:46:46.072Z,98452.16
2023-05-15T05:49:13.055Z,98445.47
2023-05-15T05:51:40.359Z,98438.47
2023-05-15T05:54:07.343Z,98433.38
2023-05-15T05:56:34.764Z,98420.47
2023-05-15T05:59:02.333Z,98422.63
2023-05-15T06:01:29.788Z,98415.91
2023-05-15T06:03:57.440Z,98412.38
2023-05-15T06:06:25.024Z,98410.25
2023-05-15T06:08:53.144Z,98399.50
2023-05-15T06:11:24.986Z,98404.34
2023-05-15T06:13:52.718Z,98398.94
2023-05-15T06:16:20.158Z,98399.47
2023-05-15T06:18:47.098Z,98395.97
2023-05-15T06:21:14.346Z,98397.84
2023-05-15T06:23:41.266Z,98400.00
2023-05-15T06:26:08.568Z,98392.97
2023-05-15T06:28:35.487Z,98391.91
2023-05-15T06:31:02.770Z,98393.47
2023-05-15T06:33:29.748Z,98395.59
2023-05-15T06:35:57.217Z,98382.66
2023-05-15T06:38:24.200Z,98382.66
2023-05-15T06:40:51.377Z,98371.34
2023-05-15T06:43:18.455Z,98372.13
2023-05-15T06:45:45.868Z,98379.06
2023-05-15T06:48:13.001Z,98376.34
2023-05-15T06:50:40.225Z,98383.03
2023-05-15T06:53:07.271Z,98389.00
2023-05-15T06:55:36.391Z,98387.88
2023-05-15T06:58:04.332Z,98380.25
2023-05-15T07:00:31.651Z,98380.25
2023-05-15T07:02:58.585Z,98368.91
2023-05-15T07:05:26.292Z,98362.34
2023-05-15T07:07:53.449Z,98369.63
2023-05-15T07:10:20.701Z,98367.97
2023-05-15T07:12:47.680Z,98372.13
2023-05-15T07:15:14.887Z,98371.72
2023-05-15T07:17:41.980Z,98379.41
2023-05-15T07:20:09.742Z,98378.47
2023-05-15T07:22:44.500Z,98379.97
2023-05-15T07:25:19.654Z,98382.53
2023-05-15T07:27:46.560Z,98382.41
2023-05-15T07:30:14.240Z,98379.31
2023-05-15T07:32:41.510Z,98385.38
2023-05-15T07:35:11.376Z,98388.47
2023-05-15T07:37:38.896Z,98379.16
2023-05-15T07:40:07.810Z,98373.41
2023-05-15T07:42:34.763Z,98381.13
2023-05-15T07:45:03.195Z,98380.50
2023-05-15T07:47:30.490Z,98384.22
2023-05-15T07:49:57.883Z,98384.72
2023-05-15T07:52:24.876Z,98388.50
2023-05-15T07:54:52.063Z,98385.91
2023-05-15T07:57:19.744Z,98381.44
2023-05-15T07:59:47.047Z,98389.72
2023-05-15T08:02:13.986Z,98385.53
2023-05-15T08:04:41.387Z,98381.38
2023-05-15T08:07:08.597Z,98386.69
2023-05-15T08:09:35.847Z,98386.00
2023-05-15T08:12:20.787Z,98394.25
2023-05-15T08:14:53.646Z,98381.66
2023-05-15T08:17:21.324Z,98389.91
2023-05-15T08:19:49.349Z,98386.00
2023-05-15T08:22:16.860Z,98394.28
2023-05-15T08:24:44.876Z,98391.16
2023-05-15T08:27:11.991Z,98394.00
2023-05-15T08:29:40.064Z,98385.16
2023-05-15T08:32:08.922Z,98399.31
2023-05-15T08:34:36.268Z,98401.63
2023-05-15T08:37:04.683Z,98406.16
2023-05-15T08:39:32.111Z,98403.84
2023-05-15T08:42:24.256Z,98393.41
2023-05-15T08:44:52.694Z,98388.16
2023-05-15T08:47:20.838Z,98390.59
2023-05-15T08:50:07.823Z,98389.38
2023-05-15T08:52:35.604Z,98393.59
2023-05-15T08:55:04.901Z,98393.38
2023-05-15T08:57:33.851Z,98399.22
2023-05-15T09:00:04.601Z,98394.97
2023-05-15T09:02:32.524Z,98401.09
2023-05-15T09:04:59.992Z,98409.13
2023-05-15T09:07:29.497Z,98403.56
2023-05-15T09:09:58.472Z,98406.97
2023-05-15T09:12:27.327Z,98412.59
2023-05-15T09:15:14.278Z,98408.16
2023-05-15T09:17:43.168Z,98411.34
2023-05-15T09:20:33.775Z,98405.94
2023-05-15T09:23:05.503Z,98402.13
2023-05-15T09:25:42.770Z,98399.91
2023-05-15T09:28:24.459Z,98412.34
2023-05-15T09:31:05.892Z,98410.13
2023-05-15T09:33:39.264Z,98403.09
2023-05-15T09:36:08.840Z,98403.91
2023-05-15T09:38:42.636Z,98410.75
2023-05-15T09:41:10.337Z,98410.75
2023-05-15T09:43:39.959Z,98419.19
2023-05-15T09:46:08.862Z,98416.16
2023-05-15T09:48:36.379Z,98420.59
2023-05-15T09:51:14.334Z,98428.25
2023-05-15T09:53:41.758Z,98412.59
2023-05-15T09:56:12.885Z,98408.38
2023-05-15T09:58:56.305Z,98418.72
2023-05-15T10:01:25.200Z,98424.03
2023-05-15T10:04:04.765Z,98426.44
2023-05-15T10:06:37.556Z,98418.50
2023-05-15T10:09:04.943Z,98412.47
2023-05-15T10:11:38.348Z,98414.59
2023-05-15T10:14:08.196Z,98423.19
2023-05-15T10:16:38.412Z,98423.19
2023-05-15T10:19:09.250Z,98423.38
2023-05-15T10:21:39.586Z,98418.75
2023-05-15T10:24:08.314Z,98424.69
2023-05-15T10:26:41.006Z,98425.81
2023-05-15T10:29:14.102Z,98427.22
2023-05-15T10:31:42.556Z,98428.00
2023-05-15T10:34:10.901Z,98426.78
2023-05-15T10:36:39.004Z,98441.31
2023-05-15T10:39:08.273Z,98441.63
2023-05-15T10:41:40.137Z,98455.69
2023-05-15T10:44:08.023Z,98447.75
2023-05-15T10:46:37.753Z,98447.63
2023-05-15T10:49:05.438Z,98440.59
2023-05-15T10:51:35.978Z,98435.97
2023-05-15T10:54:06.227Z,98434.56
2023-05-15T10:56:38.264Z,98430.72
2023-05-15T10:59:10.670Z,98423.72
2023-05-15T11:01:41.192Z,98419.38
2023-05-15T11:04:17.946Z,98415.25
2023-05-15T11:06:48.577Z,98412.25
2023-05-15T11:09:21.957Z,98419.09
2023-05-15T11:11:52.223Z,98419.88
2023-05-15T11:14:20.008Z,98421.97
2023-05-15T11:16:53.629Z,98418.66
2023-05-15T11:19:28.283Z,98412.00
2023-05-15T11:22:15.310Z,98410.31
2023-05-15T11:25:09.288Z,98404.75
2023-05-15T11:27:42.399Z,98402.72
2023-05-15T11:30:20.742Z,98401.13
2023-05-15T11:32:58.991Z,98402.00
2023-05-15T11:35:43.063Z,98405.06
2023-05-15T11:38:10.344Z,98405.09
2023-05-15T11:40:47.173Z,98404.84
2023-05-15T11:43:25.473Z,98418.47
2023-05-15T11:45:58.339Z,98417.38
2023-05-15T11:48:33.468Z,98408.97
2023-05-15T11:51:05.575Z,98401.97
2023-05-15T11:53:33.654Z,98400.88
2023-05-15T11:56:00.886Z,98396.59
2023-05-15T11:58:28.189Z,98388.63
2023-05-15T12:00:55.428Z,98392.00
2023-05-15T12:03:38.094Z,98391.56
2023-05-15T12:06:06.221Z,98375.81
2023-05-15T12:08:42.080Z,98370.63
2023-05-15T12:11:10.598Z,98375.34
2023-05-15T12:13:38.046Z,98374.63
2023-05-15T12:16:05.416Z,98372.00
2023-05-15T12:18:34.181Z,98364.56
2023-05-15T12:21:01.306Z,98362.44
2023-05-15T12:23:28.788Z,98362.22
2023-05-15T12:26:02.355Z,98360.34
2023-05-15T12:28:34.416Z,98365.31
2023-05-15T12:31:01.537Z,98362.97
2023-05-15T12:33:28.914Z,98356.28
2023-05-15T12:36:00.750Z,98353.44
2023-05-15T12:38:29.457Z,98345.31
2023-05-15T12:40:57.495Z,98344.53
2023-05-15T12:43:26.364Z,98336.00
2023-05-15T12:45:55.744Z,98336.88
2023-05-15T12:48:23.321Z,98334.69
2023-05-15T12:50:50.630Z,98329.03
2023-05-15T12:53:18.231Z,98330.84
2023-05-15T12:55:46.938Z,98332.94
2023-05-15T12:58:18.725Z,98333.19
2023-05-15T13:00:46.870Z,98338.28
2023-05-15T13:03:14.948Z,98342.69
2023-05-15T13:05:45.433Z,98333.81
2023-05-15T13:08:17.941Z,98329.00
2023-05-15T13:10:47.357Z,98323.41
2023-05-15T13:13:16.530Z,98333.84
2023-05-15T13:15:45.630Z,98334.59
2023-05-15T13:18:16.107Z,98340.41
2023-05-15T13:20:49.769Z,98352.84
2023-05-15T13:23:19.963Z,98370.50
2023-05-15T13:25:47.812Z,98386.31
2023-05-15T13:28:16.289Z,98374.16
2023-05-15T13:30:43.710Z,98376.41
2023-05-15T13:33:12.853Z,98376.06
2023-05-15T13:35:42.910Z,98363.06
2023-05-15T13:38:11.691Z,98364.03
2023-05-15T13:40:39.889Z,98363.41
2023-05-15T13:43:07.037Z,98362.94
2023-05-15T13:45:34.706Z,98363.41
2023-05-15T13:48:01.916Z,98361.00
2023-05-15T13:50:29.308Z,98356.22
2023-05-15T13:52:56.354Z,98351.28
2023-05-15T13:55:25.568Z,98352.84
2023-05-15T13:57:53.099Z,98351.38
2023-05-15T14:00:21.401Z,98351.69
2023-05-15T14:02:48.728Z,98359.28
2023-05-15T14:05:17.498Z,98357.28
2023-05-15T14:07:44.937Z,98356.38
2023-05-15T14:10:12.407Z,98349.72
2023-05-15T14:12:40.212Z,98349.53
2023-05-15T14:15:08.702Z,98337.00
2023-05-15T14:17:35.689Z,98350.44
2023-05-15T14:20:03.243Z,98344.72
2023-05-15T14:22:30.204Z,98350.28
2023-05-15T14:24:57.422Z,98350.22
2023-05-15T14:27:24.420Z,98351.63
2023-05-15T14:29:51.975Z,98353.22
2023-05-15T14:32:19.005Z,98360.47
2023-05-15T14:34:46.485Z,98338.47
2023-05-15T14:37:13.526Z,98351.53
2023-05-15T14:39:40.888Z,98356.34
2023-05-15T14:42:08.208Z,98353.97
2023-05-15T14:44:35.701Z,98358.00
2023-05-15T14:47:12.679Z,98359.44
2023-05-15T14:49:40.723Z,98366.72
2023-05-15T14:52:10.322Z,98371.88
2023-05-15T14:54:38.886Z,98364.69
2023-05-15T14:57:07.214Z,98381.44
2023-05-15T14:59:35.001Z,98373.53
2023-05-15T15:02:02.296Z,98366.97
2023-05-15T15:04:34.264Z,98379.63
2023-05-15T15:07:05.364Z,98371.66
2023-05-15T15:09:32.607Z,98382.31
2023-05-15T15:11:59.564Z,98382.53
2023-05-15T15:14:26.879Z,98367.88
2023-05-15T15:16:53.994Z,98365.59
2023-05-15T15:19:21.283Z,98375.25
2023-05-15T15:21:48.489Z,98367.69
2023-05-15T15:24:16.912Z,98367.16
2023-05-15T15:26:44.024Z,98372.34
2023-05-15T15:29:11.457Z,98378.78
2023-05-15T15:31:38.425Z,98374.47
2023-05-15T15:34:08.324Z,98374.47
2023-05-15T15:36:38.516Z,98379.13
2023-05-15T15:39:06.289Z,98379.28
2023-05-15T15:41:33.314Z,98382.38
2023-05-15T15:44:01.270Z,98386.63
2023-05-15T15:46:28.204Z,98398.88
2023-05-15T15:48:55.555Z,98397.50
2023-05-15T15:51:22.576Z,98379.03
2023-05-15T15:53:50.907Z,98388.41
2023-05-15T15:56:17.985Z,98389.13
2023-05-15T15:58:45.278Z,98397.56
2023-05-15T16:01:12.426Z,98396.44
2023-05-15T16:03:39.764Z,98390.03
2023-05-15T16:06:06.790Z,98396.88
2023-05-15T16:08:34.024Z,98399.69
2023-05-15T16:11:03.373Z,98408.88
2023-05-15T16:13:30.608Z,98402.72
2023-05-15T16:15:57.640Z,98405.22
2023-05-15T16:18:24.902Z,98415.19
2023-05-15T16:20:51.797Z,98412.34
2023-05-15T16:23:21.061Z,98410.28
2023-05-15T16:25:48.147Z,98413.81
2023-05-15T16:28:15.425Z,98414.41
2023-05-15T16:30:49.016Z,98411.47
2023-05-15T16:33:18.736Z,98417.38
2023-05-15T16:35:46.401Z,98415.72
2023-05-15T16:38:14.148Z,98418.34
2023-05-15T16:40:41.530Z,98424.69
2023-05-15T16:43:09.016Z,98425.50
2023-05-15T16:45:35.990Z,98428.41
2023-05-15T16:48:03.599Z,98418.78
2023-05-15T16:50:34.924Z,98421.06
2023-05-15T16:53:02.628Z,98428.91
2023-05-15T16:55:29.824Z,98425.84
2023-05-15T16:57:57.098Z,98428.56
2023-05-15T17:00:24.309Z,98425.84
2023-05-15T17:02:51.948Z,98436.59
2023-05-15T17:05:18.953Z,98434.84
2023-05-15T17:07:46.945Z,98442.56
2023-05-15T17:10:14.102Z,98450.94
2023-05-15T17:12:41.459Z,98454.63
2023-05-15T17:15:09.121Z,98450.16
2023-05-15T17:17:36.799Z,98453.53
2023-05-15T17:20:05.670Z,98455.94
2023-05-15T17:22:33.118Z,98458.69
2023-05-15T17:25:00.299Z,98459.03
2023-05-15T17:27:27.607Z,98465.75
2023-05-15T17:29:54.704Z,98459.50
2023-05-15T17:32:22.771Z,98463.03
2023-05-15T17:34:52.526Z,98465.47
2023-05-15T17:37:19.788Z,98467.22
2023-05-15T17:39:46.809Z,98480.06
2023-05-15T17:42:14.029Z,98479.75
2023-05-15T17:44:41.145Z,98485.66
2023-05-15T17:47:10.167Z,98493.00
2023-05-15T17:49:38.736Z,98499.72
2023-05-15T17:52:07.527Z,98504.84
2023-05-15T17:54:34.587Z,98509.13
2023-05-15T17:57:02.421Z,98508.78
2023-05-15T17:59:30.851Z,98506.03
2023-05-15T18:01:58.295Z,98502.66
2023-05-15T18:04:25.554Z,98505.34
2023-05-15T18:06:52.985Z,98501.81
2023-05-15T18:09:24.506Z,98497.28
2023-05-15T18:11:52.071Z,98495.94
2023-05-15T18:14:18.986Z,98507.69
2023-05-15T18:16:46.261Z,98513.38
2023-05-15T18:19:13.462Z,98525.00
2023-05-15T18:21:40.774Z,98528.44
2023-05-15T18:24:08.005Z,98539.44
2023-05-15T18:26:35.181Z,98543.41
2023-05-15T18:29:05.953Z,98543.16
2023-05-15T18:31:33.303Z,98543.56
2023-05-15T18:34:01.027Z,98557.09
2023-05-15T18:36:28.428Z,98553.69
2023-05-15T18:38:55.344Z,98565.44
2023-05-15T18:41:23.099Z,98561.84
2023-05-15T18:43:49.994Z,98572.91
2023-05-15T18:46:17.869Z,98575.63
2023-05-15T18:48:44.861Z,98577.63
2023-05-15T18:51:12.885Z,98579.63
2023-05-15T18:53:40.092Z,98581.47
2023-05-15T18:56:07.281Z,98586.69
2023-05-15T18:58:35.219Z,98590.28
2023-05-15T19:01:02.944Z,98586.69
2023-05-15T19:03:30.041Z,98587.69
2023-05-15T19:05:57.516Z,98590.28
2023-05-15T19:08:24.526Z,98609.09
2023-05-15T19:10:52.630Z,98609.38
2023-05-15T19:13:19.833Z,98604.06
2023-05-15T19:15:52.081Z,98606.78
2023-05-15T19:18:19.942Z,98606.22
2023-05-15T19:20:52.051Z,98612.78
2023-05-15T19:23:20.638Z,98616.66
2023-05-15T19:25:48.203Z,98619.44
2023-05-15T19:28:15.323Z,98623.84
2023-05-15T19:30:42.943Z,98623.94
2023-05-15T19:33:10.262Z,98623.81
2023-05-15T19:35:37.777Z,98623.66
2023-05-15T19:38:05.016Z,98627.00
2023-05-15T19:40:32.331Z,98634.69
2023-05-15T19:42:59.339Z,98626.66
2023-05-15T19:45:26.504Z,98627.81
2023-05-15T19:47:53.603Z,98628.97
2023-05-15T19:50:20.985Z,98632.53
2023-05-15T19:52:48.095Z,98636.69
2023-05-15T19:55:15.267Z,98640.59
2023-05-15T19:57:44.981Z,98644.44
2023-05-15T20:00:13.437Z,98654.81
2023-05-15T20:02:41.754Z,98638.63
2023-05-15T20:08:43.444Z,98638.25
2023-05-15T20:11:11.116Z,98632.38
2023-05-15T20:13:38.333Z,98631.94
2023-05-15T20:16:10.455Z,98635.25
2023-05-15T20:18:39.532Z,98634.78
2023-05-15T20:21:06.846Z,98641.09
2023-05-15T20:23:33.983Z,98639.00
2023-05-15T20:26:01.353Z,98646.91
2023-05-15T20:28:29.012Z,98643.72
2023-05-15T20:30:57.753Z,98643.75
2023-05-15T20:33:25.439Z,98644.88
2023-05-15T20:35:53.976Z,98657.84
2023-05-15T20:38:25.266Z,98655.19
2023-05-15T20:40:52.927Z,98666.56
2023-05-15T20:48:28.191Z,98672.06
2023-05-15T20:50:56.256Z,98678.03
2023-05-15T20:53:23.347Z,98669.97
2023-05-15T20:55:50.649Z,98683.50
2023-05-15T20:58:17.533Z,98680.03
2023-05-15T21:00:45.725Z,98683.56
2023-05-15T21:03:13.272Z,98686.88
2023-05-15T21:05:40.860Z,98693.34
2023-05-15T21:08:08.042Z,98694.72
2023-05-15T21:10:35.391Z,98689.09
2023-05-15T21:13:02.383Z,98699.59
2023-05-15T21:15:29.585Z,98700.41
2023-05-15T21:17:56.576Z,98707.47
2023-05-15T21:36:10.343Z,98710.28
2023-05-15T21:49:13.132Z,98708.19
2023-05-15T21:51:40.582Z,98719.53
2023-05-15T21:54:07.474Z,98715.22
2023-05-15T21:56:35.952Z,98719.56
2023-05-15T21:59:02.929Z,98715.78
2023-05-15T22:01:30.478Z,98711.72
2023-05-15T22:21:09.267Z,98709.31
2023-05-15T22:40:27.409Z,98721.06
2023-05-15T22:42:57.211Z,98727.00
2023-05-15T22:45:24.499Z,98731.25
2023-05-15T22:47:51.673Z,98731.25
2023-05-15T23:43:49.957Z,98760.88
2023-05-15T23:47:12.579Z,98754.94
